Decoded Metar for LLIB (ROSH PINA in ISRAEL) (IATA:RPN) | Meteo·Mobile Aviation Weather
aviador You're here:

LLIB Decoded Metar

ROSH PINA in ISRAEL
Report Time2019-02-17 04:50:00
UTC Time2019-02-17 05:20:12
Flight Rules vfr VFR
WindVRB at 02 kt
Visibility9999 m
Phenomena:N/A
Clouds:Few 023 Hf
Scattered 030 Hf
Expected CloudBase > 400 ft AGL from Temp-Dew spread
CeilingNone
Temp05°C (ISA -8)
Dew Point04°C (93% RH)
AAT3.0°C
QNH1022 hPa
Density Alt-256 ft
Elevation922 ft
Report Wrong Elevation
Raw Report
LLIB 170450Z VRB02KT 9999 FEW023 SCT030 05/04 Q1022=

Extra information for LLIB:More info

Metar Taf Metar & Taf Last 4 Metars F.Rules Stats Wind Profile Meteogram Temp Stats Airport Information Weather charts Add Link Nearby VenuesMetar ALERT Operation Metar Decoded Social comments